sensor_id;sensor_type;location;lat;lon;timestamp;pressure;altitude;pressure_sealevel;temperature;humidity
13952;BME280;39535;52.192;9.886;2023-01-15T00:00:56;98434.31;;;10.07;100.00
13952;BME280;39535;52.192;9.886;2023-01-15T00:03:24;98443.81;;;10.08;100.00
13952;BME280;39535;52.192;9.886;2023-01-15T00:05:50;98452.41;;;10.10;100.00
13952;BME280;39535;52.192;9.886;2023-01-15T00:08:17;98463.22;;;10.02;100.00
13952;BME280;39535;52.192;9.886;2023-01-15T00:10:43;98482.75;;;9.93;100.00
13952;BME280;39535;52.192;9.886;2023-01-15T00:13:10;98485.41;;;9.92;100.00
13952;BME280;39535;52.192;9.886;2023-01-15T00:15:36;98494.31;;;9.88;100.00
13952;BME280;39535;52.192;9.886;2023-01-15T00:18:03;98474.34;;;9.69;100.00
13952;BME280;39535;52.192;9.886;2023-01-15T00:20:31;98443.84;;;9.71;100.00
13952;BME280;39535;52.192;9.886;2023-01-15T00:22:57;98447.34;;;9.70;100.00
13952;BME280;39535;52.192;9.886;2023-01-15T00:25:23;98462.50;;;9.62;100.00
13952;BME280;39535;52.192;9.886;2023-01-15T00:28:07;98461.38;;;9.49;100.00
13952;BME280;39535;52.192;9.886;2023-01-15T00:30:39;98461.03;;;9.57;100.00
13952;BME280;39535;52.192;9.886;2023-01-15T00:33:05;98513.31;;;8.93;100.00
13952;BME280;39535;52.192;9.886;2023-01-15T00:35:33;98511.56;;;8.73;100.00
13952;BME280;39535;52.192;9.886;2023-01-15T00:37:59;98490.06;;;8.27;100.00
13952;BME280;39535;52.192;9.886;2023-01-15T00:40:26;98488.09;;;7.90;100.00
13952;BME280;39535;52.192;9.886;2023-01-15T00:42:53;98481.63;;;7.78;100.00
13952;BME280;39535;52.192;9.886;2023-01-15T00:45:19;98472.63;;;7.65;100.00
13952;BME280;39535;52.192;9.886;2023-01-15T00:47:45;98506.19;;;7.47;100.00
13952;BME280;39535;52.192;9.886;2023-01-15T00:50:14;98509.97;;;7.39;100.00
13952;BME280;39535;52.192;9.886;2023-01-15T00:52:42;98555.53;;;7.22;100.00
13952;BME280;39535;52.192;9.886;2023-01-15T00:55:08;98600.03;;;6.86;100.00
13952;BME280;39535;52.192;9.886;2023-01-15T00:57:35;98599.56;;;6.73;100.00
13952;BME280;39535;52.192;9.886;2023-01-15T01:00:01;98593.28;;;6.54;100.00
13952;BME280;39535;52.192;9.886;2023-01-15T01:02:28;98573.25;;;6.59;100.00
13952;BME280;39535;52.192;9.886;2023-01-15T01:04:55;98578.69;;;6.51;100.00
13952;BME280;39535;52.192;9.886;2023-01-15T01:07:21;98574.63;;;6.44;100.00
13952;BME280;39535;52.192;9.886;2023-01-15T01:09:48;98581.13;;;6.29;100.00
13952;BME280;39535;52.192;9.886;2023-01-15T01:12:15;98584.31;;;6.38;100.00
13952;BME280;39535;52.192;9.886;2023-01-15T01:14:41;98591.88;;;6.44;100.00
13952;BME280;39535;52.192;9.886;2023-01-15T01:17:08;98614.09;;;6.24;100.00
13952;BME280;39535;52.192;9.886;2023-01-15T01:19:35;98602.31;;;6.14;100.00
13952;BME280;39535;52.192;9.886;2023-01-15T01:22:01;98610.88;;;6.16;100.00
13952;BME280;39535;52.192;9.886;2023-01-15T01:24:28;98628.38;;;6.09;100.00
13952;BME280;39535;52.192;9.886;2023-01-15T01:26:55;98622.81;;;5.92;100.00
13952;BME280;39535;52.192;9.886;2023-01-15T01:29:22;98633.13;;;5.93;100.00
13952;BME280;39535;52.192;9.886;2023-01-15T01:31:48;98652.41;;;5.83;100.00
13952;BME280;39535;52.192;9.886;2023-01-15T01:34:15;98690.31;;;5.86;100.00
13952;BME280;39535;52.192;9.886;2023-01-15T01:36:43;98705.06;;;5.82;100.00
13952;BME280;39535;52.192;9.886;2023-01-15T01:39:12;98717.38;;;5.74;100.00
13952;BME280;39535;52.192;9.886;2023-01-15T01:41:39;98722.16;;;5.56;100.00
13952;BME280;39535;52.192;9.886;2023-01-15T01:47:13;98724.22;;;5.44;100.00
13952;BME280;39535;52.192;9.886;2023-01-15T01:49:43;98726.91;;;5.39;100.00
13952;BME280;39535;52.192;9.886;2023-01-15T01:52:13;98695.72;;;5.45;100.00
13952;BME280;39535;52.192;9.886;2023-01-15T01:54:43;98701.03;;;5.39;100.00
13952;BME280;39535;52.192;9.886;2023-01-15T01:57:12;98713.06;;;5.42;100.00
13952;BME280;39535;52.192;9.886;2023-01-15T01:59:41;98730.59;;;5.30;100.00
13952;BME280;39535;52.192;9.886;2023-01-15T02:02:08;98721.69;;;5.06;100.00
13952;BME280;39535;52.192;9.886;2023-01-15T02:04:35;98697.53;;;5.07;100.00
13952;BME280;39535;52.192;9.886;2023-01-15T02:07:02;98699.47;;;4.99;100.00
13952;BME280;39535;52.192;9.886;2023-01-15T02:09:29;98711.72;;;4.91;100.00
13952;BME280;39535;52.192;9.886;2023-01-15T02:12:00;98722.06;;;4.91;100.00
13952;BME280;39535;52.192;9.886;2023-01-15T02:14:33;98719.25;;;5.02;100.00
13952;BME280;39535;52.192;9.886;2023-01-15T02:17:07;98734.88;;;4.95;100.00
13952;BME280;39535;52.192;9.886;2023-01-15T02:19:44;98719.41;;;4.94;100.00
13952;BME280;39535;52.192;9.886;2023-01-15T02:22:20;98717.34;;;5.08;100.00
13952;BME280;39535;52.192;9.886;2023-01-15T02:24:58;98713.31;;;4.96;100.00
13952;BME280;39535;52.192;9.886;2023-01-15T02:27:30;98713.03;;;5.07;100.00
13952;BME280;39535;52.192;9.886;2023-01-15T02:30:01;98723.50;;;5.03;100.00
13952;BME280;39535;52.192;9.886;2023-01-15T02:32:33;98738.97;;;5.06;100.00
13952;BME280;39535;52.192;9.886;2023-01-15T02:35:05;98778.00;;;4.93;100.00
13952;BME280;39535;52.192;9.886;2023-01-15T02:37:38;98780.66;;;4.92;100.00
13952;BME280;39535;52.192;9.886;2023-01-15T02:40:09;98790.38;;;4.81;100.00
13952;BME280;39535;52.192;9.886;2023-01-15T02:42:38;98792.97;;;4.81;100.00
13952;BME280;39535;52.192;9.886;2023-01-15T02:45:08;98781.63;;;4.88;100.00
13952;BME280;39535;52.192;9.886;2023-01-15T02:47:39;98763.22;;;5.00;100.00
13952;BME280;39535;52.192;9.886;2023-01-15T02:50:15;98790.84;;;5.00;99.72
13952;BME280;39535;52.192;9.886;2023-01-15T02:52:44;98830.78;;;4.85;98.50
13952;BME280;39535;52.192;9.886;2023-01-15T02:55:16;98820.53;;;4.82;98.41
13952;BME280;39535;52.192;9.886;2023-01-15T02:57:46;98812.66;;;4.86;98.08
13952;BME280;39535;52.192;9.886;2023-01-15T03:00:15;98820.44;;;4.85;98.10
13952;BME280;39535;52.192;9.886;2023-01-15T03:02:45;98813.22;;;4.99;98.53
13952;BME280;39535;52.192;9.886;2023-01-15T03:05:17;98825.16;;;5.05;98.32
13952;BME280;39535;52.192;9.886;2023-01-15T03:07:48;98829.16;;;5.20;97.56
13952;BME280;39535;52.192;9.886;2023-01-15T03:10:17;98810.78;;;5.30;96.98
13952;BME280;39535;52.192;9.886;2023-01-15T03:12:47;98828.78;;;5.35;97.83
13952;BME280;39535;52.192;9.886;2023-01-15T03:15:36;98843.34;;;5.39;96.55
13952;BME280;39535;52.192;9.886;2023-01-15T03:18:23;98856.28;;;5.39;97.32
13952;BME280;39535;52.192;9.886;2023-01-15T03:20:54;98848.75;;;5.30;96.00
13952;BME280;39535;52.192;9.886;2023-01-15T03:23:23;98855.53;;;5.35;97.14
13952;BME280;39535;52.192;9.886;2023-01-15T03:25:51;98831.34;;;5.36;97.21
13952;BME280;39535;52.192;9.886;2023-01-15T03:28:22;98807.31;;;5.31;98.32
13952;BME280;39535;52.192;9.886;2023-01-15T03:30:50;98806.41;;;5.34;98.16
13952;BME280;39535;52.192;9.886;2023-01-15T03:33:16;98824.81;;;5.22;96.60
13952;BME280;39535;52.192;9.886;2023-01-15T03:35:46;98822.03;;;5.29;97.24
13952;BME280;39535;52.192;9.886;2023-01-15T03:38:14;98815.00;;;5.34;96.56
13952;BME280;39535;52.192;9.886;2023-01-15T03:40:47;98807.19;;;5.37;96.92
13952;BME280;39535;52.192;9.886;2023-01-15T03:43:17;98828.88;;;5.32;95.39
13952;BME280;39535;52.192;9.886;2023-01-15T03:46:10;98803.03;;;5.30;97.34
13952;BME280;39535;52.192;9.886;2023-01-15T03:48:43;98817.72;;;5.30;95.96
13952;BME280;39535;52.192;9.886;2023-01-15T03:51:17;98835.72;;;5.33;96.18
13952;BME280;39535;52.192;9.886;2023-01-15T03:53:48;98844.44;;;5.29;94.99
13952;BME280;39535;52.192;9.886;2023-01-15T03:56:18;98840.97;;;5.31;96.06
13952;BME280;39535;52.192;9.886;2023-01-15T03:58:51;98823.41;;;5.44;95.84
13952;BME280;39535;52.192;9.886;2023-01-15T04:01:24;98855.75;;;5.25;94.20
13952;BME280;39535;52.192;9.886;2023-01-15T04:03:53;98852.81;;;5.40;94.90
13952;BME280;39535;52.192;9.886;2023-01-15T04:06:21;98840.75;;;5.39;93.45
13952;BME280;39535;52.192;9.886;2023-01-15T04:08:50;98896.09;;;5.33;92.52
13952;BME280;39535;52.192;9.886;2023-01-15T04:11:21;98923.97;;;5.21;91.10
13952;BME280;39535;52.192;9.886;2023-01-15T04:13:48;98936.81;;;5.25;90.61
13952;BME280;39535;52.192;9.886;2023-01-15T04:16:25;98926.19;;;5.37;92.04
13952;BME280;39535;52.192;9.886;2023-01-15T04:18:52;98906.31;;;5.40;92.26
13952;BME280;39535;52.192;9.886;2023-01-15T04:21:19;98935.81;;;5.31;90.96
13952;BME280;39535;52.192;9.886;2023-01-15T04:23:45;98933.19;;;5.32;91.25
13952;BME280;39535;52.192;9.886;2023-01-15T04:26:12;98927.81;;;5.42;91.16
13952;BME280;39535;52.192;9.886;2023-01-15T04:28:38;98938.97;;;5.45;90.49
13952;BME280;39535;52.192;9.886;2023-01-15T04:31:04;98925.16;;;5.45;91.04
13952;BME280;39535;52.192;9.886;2023-01-15T04:33:32;98955.38;;;5.44;90.06
13952;BME280;39535;52.192;9.886;2023-01-15T04:35:59;98963.16;;;5.43;89.74
13952;BME280;39535;52.192;9.886;2023-01-15T04:38:26;98944.31;;;5.37;89.48
13952;BME280;39535;52.192;9.886;2023-01-15T04:40:52;98952.91;;;5.38;89.04
13952;BME280;39535;52.192;9.886;2023-01-15T04:43:36;98965.75;;;5.43;88.77
13952;BME280;39535;52.192;9.886;2023-01-15T04:46:20;98962.28;;;5.44;88.92
13952;BME280;39535;52.192;9.886;2023-01-15T04:48:48;98975.06;;;5.51;89.71
13952;BME280;39535;52.192;9.886;2023-01-15T04:51:14;98986.38;;;5.47;88.58
13952;BME280;39535;52.192;9.886;2023-01-15T04:53:40;98995.00;;;5.46;87.79
13952;BME280;39535;52.192;9.886;2023-01-15T04:56:07;99010.41;;;5.51;87.87
13952;BME280;39535;52.192;9.886;2023-01-15T04:58:34;98998.13;;;5.61;88.46
13952;BME280;39535;52.192;9.886;2023-01-15T05:01:00;99003.22;;;5.65;88.26
13952;BME280;39535;52.192;9.886;2023-01-15T05:03:27;99027.13;;;5.36;87.80
13952;BME280;39535;52.192;9.886;2023-01-15T05:05:55;99022.75;;;5.40;87.83
13952;BME280;39535;52.192;9.886;2023-01-15T05:08:26;99020.81;;;5.49;87.93
13952;BME280;39535;52.192;9.886;2023-01-15T05:10:52;99021.66;;;5.51;87.30
13952;BME280;39535;52.192;9.886;2023-01-15T05:13:19;99038.66;;;5.62;87.16
13952;BME280;39535;52.192;9.886;2023-01-15T05:15:45;99046.34;;;5.66;86.59
13952;BME280;39535;52.192;9.886;2023-01-15T05:18:12;99078.22;;;5.68;85.11
13952;BME280;39535;52.192;9.886;2023-01-15T05:20:40;99099.00;;;5.65;85.28
13952;BME280;39535;52.192;9.886;2023-01-15T05:23:08;99073.78;;;5.75;85.38
13952;BME280;39535;52.192;9.886;2023-01-15T05:25:35;99067.81;;;5.71;84.79
13952;BME280;39535;52.192;9.886;2023-01-15T05:28:01;99070.19;;;5.81;85.33
13952;BME280;39535;52.192;9.886;2023-01-15T05:30:27;99081.41;;;5.81;84.23
13952;BME280;39535;52.192;9.886;2023-01-15T05:32:54;99127.19;;;5.79;84.18
13952;BME280;39535;52.192;9.886;2023-01-15T05:35:20;99115.75;;;5.89;85.16
13952;BME280;39535;52.192;9.886;2023-01-15T05:37:46;99102.78;;;5.91;85.77
13952;BME280;39535;52.192;9.886;2023-01-15T05:40:14;99121.34;;;5.69;83.93
13952;BME280;39535;52.192;9.886;2023-01-15T05:42:40;99131.56;;;5.77;84.69
13952;BME280;39535;52.192;9.886;2023-01-15T05:45:08;99125.72;;;5.67;84.88
13952;BME280;39535;52.192;9.886;2023-01-15T05:47:34;99110.78;;;5.78;83.78
13952;BME280;39535;52.192;9.886;2023-01-15T05:50:01;99113.34;;;5.80;84.29
13952;BME280;39535;52.192;9.886;2023-01-15T05:52:27;99106.56;;;5.74;85.31
13952;BME280;39535;52.192;9.886;2023-01-15T05:54:53;99113.47;;;5.74;84.98
13952;BME280;39535;52.192;9.886;2023-01-15T05:57:21;99101.34;;;5.77;84.93
13952;BME280;39535;52.192;9.886;2023-01-15T05:59:47;99110.91;;;5.72;84.58
13952;BME280;39535;52.192;9.886;2023-01-15T06:02:14;99088.44;;;5.74;85.22
13952;BME280;39535;52.192;9.886;2023-01-15T06:04:41;99085.81;;;5.76;85.65
13952;BME280;39535;52.192;9.886;2023-01-15T06:07:07;99071.19;;;5.75;85.72
13952;BME280;39535;52.192;9.886;2023-01-15T06:09:33;99081.47;;;5.78;85.15
13952;BME280;39535;52.192;9.886;2023-01-15T06:11:59;99056.38;;;5.80;86.39
13952;BME280;39535;52.192;9.886;2023-01-15T06:14:27;99064.16;;;5.80;86.16
13952;BME280;39535;52.192;9.886;2023-01-15T06:16:53;99061.28;;;5.92;86.92
13952;BME280;39535;52.192;9.886;2023-01-15T06:19:20;99050.91;;;5.94;87.21
13952;BME280;39535;52.192;9.886;2023-01-15T06:21:46;99049.16;;;5.94;85.84
13952;BME280;39535;52.192;9.886;2023-01-15T06:24:13;99087.44;;;5.82;84.86
13952;BME280;39535;52.192;9.886;2023-01-15T06:26:40;99074.38;;;5.86;85.76
13952;BME280;39535;52.192;9.886;2023-01-15T06:29:07;99103.91;;;5.77;84.31
13952;BME280;39535;52.192;9.886;2023-01-15T06:31:34;99107.47;;;5.73;84.52
13952;BME280;39535;52.192;9.886;2023-01-15T06:34:01;99116.91;;;5.76;84.70
13952;BME280;39535;52.192;9.886;2023-01-15T06:36:28;99114.31;;;5.74;84.62
13952;BME280;39535;52.192;9.886;2023-01-15T06:38:54;99127.94;;;5.84;85.01
13952;BME280;39535;52.192;9.886;2023-01-15T06:41:22;99134.75;;;5.88;83.81
13952;BME280;39535;52.192;9.886;2023-01-15T06:44:10;99156.28;;;5.92;83.04
13952;BME280;39535;52.192;9.886;2023-01-15T06:46:55;99163.31;;;5.85;82.38
13952;BME280;39535;52.192;9.886;2023-01-15T06:49:38;99169.19;;;5.93;83.01
13952;BME280;39535;52.192;9.886;2023-01-15T06:52:05;99169.00;;;6.04;84.09
13952;BME280;39535;52.192;9.886;2023-01-15T06:54:32;99158.63;;;6.04;83.15
13952;BME280;39535;52.192;9.886;2023-01-15T06:56:58;99151.19;;;5.87;83.67
13952;BME280;39535;52.192;9.886;2023-01-15T06:59:24;99131.19;;;5.95;84.61
13952;BME280;39535;52.192;9.886;2023-01-15T07:01:51;99125.00;;;6.03;84.51
13952;BME280;39535;52.192;9.886;2023-01-15T07:04:19;99151.22;;;5.86;83.14
13952;BME280;39535;52.192;9.886;2023-01-15T07:06:45;99138.00;;;6.01;83.83
13952;BME280;39535;52.192;9.886;2023-01-15T07:09:12;99142.25;;;6.02;82.89
13952;BME280;39535;52.192;9.886;2023-01-15T07:11:38;99136.94;;;6.10;84.10
13952;BME280;39535;52.192;9.886;2023-01-15T07:14:13;99150.84;;;6.04;82.41
13952;BME280;39535;52.192;9.886;2023-01-15T07:16:40;99143.66;;;6.19;83.59
13952;BME280;39535;52.192;9.886;2023-01-15T07:19:06;99185.56;;;5.94;81.68
13952;BME280;39535;52.192;9.886;2023-01-15T07:21:34;99191.41;;;6.07;81.60
13952;BME280;39535;52.192;9.886;2023-01-15T07:24:00;99181.06;;;6.05;82.12
13952;BME280;39535;52.192;9.886;2023-01-15T07:26:27;99188.19;;;5.95;81.48
13952;BME280;39535;52.192;9.886;2023-01-15T07:28:53;99200.38;;;5.89;81.06
13952;BME280;39535;52.192;9.886;2023-01-15T07:31:20;99183.88;;;5.93;82.67
13952;BME280;39535;52.192;9.886;2023-01-15T07:33:46;99169.28;;;5.89;82.75
13952;BME280;39535;52.192;9.886;2023-01-15T07:36:12;99173.56;;;5.91;82.07
13952;BME280;39535;52.192;9.886;2023-01-15T07:38:40;99164.72;;;6.02;82.90
13952;BME280;39535;52.192;9.886;2023-01-15T07:41:06;99164.63;;;6.06;82.42
13952;BME280;39535;52.192;9.886;2023-01-15T07:43:51;99170.84;;;5.99;82.83
13952;BME280;39535;52.192;9.886;2023-01-15T07:46:35;99155.31;;;5.99;82.37
13952;BME280;39535;52.192;9.886;2023-01-15T07:49:19;99151.91;;;5.94;82.36
13952;BME280;39535;52.192;9.886;2023-01-15T07:52:03;99170.13;;;5.91;81.86
13952;BME280;39535;52.192;9.886;2023-01-15T07:54:31;99165.53;;;6.05;82.96
13952;BME280;39535;52.192;9.886;2023-01-15T07:56:57;99157.72;;;6.07;82.81
13952;BME280;39535;52.192;9.886;2023-01-15T07:59:23;99181.94;;;6.04;81.26
13952;BME280;39535;52.192;9.886;2023-01-15T08:01:50;99167.88;;;6.16;81.88
13952;BME280;39535;52.192;9.886;2023-01-15T08:04:16;99185.47;;;6.02;81.39
13952;BME280;39535;52.192;9.886;2023-01-15T08:06:42;99188.75;;;6.08;81.41
13952;BME280;39535;52.192;9.886;2023-01-15T08:09:09;99185.31;;;6.09;81.41
13952;BME280;39535;52.192;9.886;2023-01-15T08:11:36;99192.34;;;6.03;80.73
13952;BME280;39535;52.192;9.886;2023-01-15T08:14:21;99187.19;;;6.01;80.68
13952;BME280;39535;52.192;9.886;2023-01-15T08:17:05;99186.97;;;6.12;81.34
13952;BME280;39535;52.192;9.886;2023-01-15T08:19:31;99217.34;;;6.05;80.28
13952;BME280;39535;52.192;9.886;2023-01-15T08:21:58;99229.50;;;6.00;79.91
13952;BME280;39535;52.192;9.886;2023-01-15T08:24:26;99219.78;;;6.13;80.87
13952;BME280;39535;52.192;9.886;2023-01-15T08:26:54;99221.03;;;5.90;80.14
13952;BME280;39535;52.192;9.886;2023-01-15T08:29:20;99232.91;;;6.04;80.87
13952;BME280;39535;52.192;9.886;2023-01-15T08:31:47;99232.06;;;6.02;79.79
13952;BME280;39535;52.192;9.886;2023-01-15T08:34:13;99241.63;;;6.00;79.02
13952;BME280;39535;52.192;9.886;2023-01-15T08:36:40;99230.16;;;6.11;80.46
13952;BME280;39535;52.192;9.886;2023-01-15T08:39:06;99254.28;;;6.15;78.61
13952;BME280;39535;52.192;9.886;2023-01-15T08:41:32;99251.72;;;6.13;79.23
13952;BME280;39535;52.192;9.886;2023-01-15T08:44:00;99264.63;;;6.15;78.61
13952;BME280;39535;52.192;9.886;2023-01-15T08:46:26;99261.97;;;6.18;78.78
13952;BME280;39535;52.192;9.886;2023-01-15T08:48:53;99267.34;;;6.09;79.11
13952;BME280;39535;52.192;9.886;2023-01-15T08:51:19;99281.31;;;6.00;78.23
13952;BME280;39535;52.192;9.886;2023-01-15T08:53:46;99272.69;;;6.00;80.13
13952;BME280;39535;52.192;9.886;2023-01-15T08:56:13;99255.50;;;5.97;79.34
13952;BME280;39535;52.192;9.886;2023-01-15T08:58:40;99255.53;;;5.92;79.73
13952;BME280;39535;52.192;9.886;2023-01-15T09:01:09;99252.25;;;5.83;79.52
13952;BME280;39535;52.192;9.886;2023-01-15T09:03:36;99233.97;;;5.90;80.34
13952;BME280;39535;52.192;9.886;2023-01-15T09:06:03;99227.22;;;5.85;80.05
13952;BME280;39535;52.192;9.886;2023-01-15T09:08:30;99244.44;;;5.86;79.62
13952;BME280;39535;52.192;9.886;2023-01-15T09:10:57;99237.50;;;5.88;79.86
13952;BME280;39535;52.192;9.886;2023-01-15T09:13:23;99236.56;;;5.92;79.46
13952;BME280;39535;52.192;9.886;2023-01-15T09:15:50;99239.06;;;5.98;79.90
13952;BME280;39535;52.192;9.886;2023-01-15T09:18:18;99259.19;;;5.82;78.77
13952;BME280;39535;52.192;9.886;2023-01-15T09:20:44;99262.63;;;5.83;78.51
13952;BME280;39535;52.192;9.886;2023-01-15T09:23:11;99275.53;;;5.84;78.25
13952;BME280;39535;52.192;9.886;2023-01-15T09:25:37;99275.38;;;5.95;78.81
13952;BME280;39535;52.192;9.886;2023-01-15T09:28:03;99285.69;;;5.96;78.81
13952;BME280;39535;52.192;9.886;2023-01-15T09:30:30;99271.72;;;6.07;79.24
13952;BME280;39535;52.192;9.886;2023-01-15T09:32:57;99293.22;;;6.10;78.46
13952;BME280;39535;52.192;9.886;2023-01-15T09:35:24;99299.31;;;6.08;78.36
13952;BME280;39535;52.192;9.886;2023-01-15T09:37:51;99309.56;;;6.14;78.38
13952;BME280;39535;52.192;9.886;2023-01-15T09:40:28;99321.56;;;6.18;77.83
13952;BME280;39535;52.192;9.886;2023-01-15T09:43:03;99309.38;;;6.23;77.81
13952;BME280;39535;52.192;9.886;2023-01-15T09:45:36;99331.06;;;6.19;77.13
13952;BME280;39535;52.192;9.886;2023-01-15T09:48:18;99367.69;;;6.01;74.71
13952;BME280;39535;52.192;9.886;2023-01-15T09:51:02;99399.50;;;6.07;74.32
13952;BME280;39535;52.192;9.886;2023-01-15T09:53:42;99402.13;;;6.04;73.21
13952;BME280;39535;52.192;9.886;2023-01-15T09:56:15;99443.81;;;5.89;72.22
13952;BME280;39535;52.192;9.886;2023-01-15T09:58:44;99476.06;;;5.66;73.71
13952;BME280;39535;52.192;9.886;2023-01-15T10:01:15;99453.97;;;5.44;76.36
13952;BME280;39535;52.192;9.886;2023-01-15T10:03:46;99387.66;;;5.35;77.86
13952;BME280;39535;52.192;9.886;2023-01-15T10:06:20;99330.03;;;5.25;79.96
13952;BME280;39535;52.192;9.886;2023-01-15T10:08:49;99272.28;;;5.23;80.78
13952;BME280;39535;52.192;9.886;2023-01-15T10:11:27;99224.25;;;5.08;81.53
13952;BME280;39535;52.192;9.886;2023-01-15T10:14:22;99175.84;;;5.15;81.48
13952;BME280;39535;52.192;9.886;2023-01-15T10:16:51;99145.91;;;5.02;82.19
13952;BME280;39535;52.192;9.886;2023-01-15T10:19:18;99126.44;;;4.81;83.58
13952;BME280;39535;52.192;9.886;2023-01-15T10:21:51;99088.47;;;4.83;84.26
13952;BME280;39535;52.192;9.886;2023-01-15T10:24:26;99053.19;;;4.82;85.14
13952;BME280;39535;52.192;9.886;2023-01-15T10:26:58;99035.66;;;4.97;84.93
13952;BME280;39535;52.192;9.886;2023-01-15T10:29:31;99039.28;;;4.87;84.23
13952;BME280;39535;52.192;9.886;2023-01-15T10:32:02;99046.63;;;5.09;84.71
13952;BME280;39535;52.192;9.886;2023-01-15T10:35:03;99041.31;;;5.16;83.19
13952;BME280;39535;52.192;9.886;2023-01-15T10:37:36;99054.88;;;5.29;83.81
13952;BME280;39535;52.192;9.886;2023-01-15T10:40:17;99079.72;;;5.36;82.74
13952;BME280;39535;52.192;9.886;2023-01-15T10:42:51;99088.16;;;5.46;81.91
13952;BME280;39535;52.192;9.886;2023-01-15T10:45:23;99104.25;;;5.61;82.07
13952;BME280;39535;52.192;9.886;2023-01-15T10:47:53;99110.84;;;5.77;82.07
13952;BME280;39535;52.192;9.886;2023-01-15T10:50:25;99156.63;;;5.75;80.54
13952;BME280;39535;52.192;9.886;2023-01-15T10:53:01;99181.91;;;5.61;79.11
13952;BME280;39535;52.192;9.886;2023-01-15T10:55:33;99191.44;;;5.58;79.46
13952;BME280;39535;52.192;9.886;2023-01-15T10:58:07;99197.22;;;5.73;79.28
13952;BME280;39535;52.192;9.886;2023-01-15T11:00:35;99194.72;;;5.67;78.62
13952;BME280;39535;52.192;9.886;2023-01-15T11:03:04;99230.09;;;5.69;78.67
13952;BME280;39535;52.192;9.886;2023-01-15T11:05:33;99228.56;;;5.57;77.79
13952;BME280;39535;52.192;9.886;2023-01-15T11:08:04;99244.69;;;5.72;78.35
13952;BME280;39535;52.192;9.886;2023-01-15T11:10:32;99249.84;;;5.75;78.57
13952;BME280;39535;52.192;9.886;2023-01-15T11:13:01;99228.91;;;5.86;78.85
13952;BME280;39535;52.192;9.886;2023-01-15T11:15:54;99221.84;;;5.94;77.39
13952;BME280;39535;52.192;9.886;2023-01-15T11:18:41;99241.66;;;5.96;76.69
13952;BME280;39535;52.192;9.886;2023-01-15T11:21:26;99270.84;;;6.06;76.59
13952;BME280;39535;52.192;9.886;2023-01-15T11:23:57;99319.84;;;6.19;76.37
13952;BME280;39535;52.192;9.886;2023-01-15T11:26:25;99340.66;;;6.12;74.67
13952;BME280;39535;52.192;9.886;2023-01-15T11:28:53;99343.88;;;6.27;76.11
13952;BME280;39535;52.192;9.886;2023-01-15T11:31:20;99379.22;;;6.29;75.62
13952;BME280;39535;52.192;9.886;2023-01-15T11:33:56;99354.25;;;6.27;75.54
13952;BME280;39535;52.192;9.886;2023-01-15T11:36:25;99343.75;;;6.33;74.90
13952;BME280;39535;52.192;9.886;2023-01-15T11:38:52;99386.31;;;6.20;73.76
13952;BME280;39535;52.192;9.886;2023-01-15T11:41:22;99411.28;;;6.24;72.99
13952;BME280;39535;52.192;9.886;2023-01-15T11:44:13;99422.22;;;6.40;73.44
13952;BME280;39535;52.192;9.886;2023-01-15T11:46:57;99453.34;;;6.40;73.73
13952;BME280;39535;52.192;9.886;2023-01-15T11:49:48;99453.53;;;6.30;70.35
13952;BME280;39535;52.192;9.886;2023-01-15T11:52:33;99522.56;;;6.34;71.68
13952;BME280;39535;52.192;9.886;2023-01-15T11:55:02;99519.97;;;6.34;72.29
13952;BME280;39535;52.192;9.886;2023-01-15T11:57:31;99526.00;;;6.35;71.29
13952;BME280;39535;52.192;9.886;2023-01-15T11:59:59;99525.09;;;6.38;70.45
13952;BME280;39535;52.192;9.886;2023-01-15T12:02:32;99570.88;;;6.37;69.33
13952;BME280;39535;52.192;9.886;2023-01-15T12:05:04;99572.66;;;6.35;69.86
13952;BME280;39535;52.192;9.886;2023-01-15T12:07:37;99564.78;;;6.41;69.51
13952;BME280;39535;52.192;9.886;2023-01-15T12:10:22;99596.63;;;6.48;69.45
13952;BME280;39535;52.192;9.886;2023-01-15T12:13:27;99586.13;;;6.55;68.91
13952;BME280;39535;52.192;9.886;2023-01-15T12:16:03;99601.47;;;6.69;68.77
13952;BME280;39535;52.192;9.886;2023-01-15T12:18:53;99606.41;;;6.85;68.40
13952;BME280;39535;52.192;9.886;2023-01-15T12:21:47;99632.31;;;6.86;67.21
13952;BME280;39535;52.192;9.886;2023-01-15T12:24:29;99680.06;;;6.76;66.23
13952;BME280;39535;52.192;9.886;2023-01-15T12:27:09;99675.53;;;6.87;66.77
13952;BME280;39535;52.192;9.886;2023-01-15T12:29:45;99680.84;;;6.80;66.60
13952;BME280;39535;52.192;9.886;2023-01-15T12:32:17;99714.81;;;6.63;66.62
13952;BME280;39535;52.192;9.886;2023-01-15T12:34:48;99690.56;;;6.65;67.15
13952;BME280;39535;52.192;9.886;2023-01-15T12:37:20;99674.00;;;6.75;66.87
13952;BME280;39535;52.192;9.886;2023-01-15T12:39:52;99682.66;;;6.74;65.82
13952;BME280;39535;52.192;9.886;2023-01-15T12:42:21;99680.94;;;6.73;66.58
13952;BME280;39535;52.192;9.886;2023-01-15T12:45:12;99711.38;;;6.62;65.72
13952;BME280;39535;52.192;9.886;2023-01-15T12:47:43;99688.94;;;6.60;64.94
13952;BME280;39535;52.192;9.886;2023-01-15T12:50:27;99705.38;;;6.60;65.19
13952;BME280;39535;52.192;9.886;2023-01-15T12:53:00;99695.72;;;6.68;66.14
13952;BME280;39535;52.192;9.886;2023-01-15T12:55:30;99707.03;;;6.63;66.15
13952;BME280;39535;52.192;9.886;2023-01-15T12:58:01;99676.69;;;6.69;65.47
13952;BME280;39535;52.192;9.886;2023-01-15T13:00:34;99669.69;;;6.74;66.03
13952;BME280;39535;52.192;9.886;2023-01-15T13:03:14;99674.91;;;6.73;65.31
13952;BME280;39535;52.192;9.886;2023-01-15T13:05:44;99666.22;;;6.75;65.51
13952;BME280;39535;52.192;9.886;2023-01-15T13:08:17;99645.22;;;6.89;65.75
13952;BME280;39535;52.192;9.886;2023-01-15T13:10:48;99661.59;;;6.93;64.18
13952;BME280;39535;52.192;9.886;2023-01-15T13:13:17;99668.66;;;6.86;63.65
13952;BME280;39535;52.192;9.886;2023-01-15T13:15:54;99692.81;;;6.90;64.12
13952;BME280;39535;52.192;9.886;2023-01-15T13:18:27;99671.00;;;7.02;65.00
13952;BME280;39535;52.192;9.886;2023-01-15T13:20:58;99659.94;;;6.90;64.10
13952;BME280;39535;52.192;9.886;2023-01-15T13:23:38;99700.53;;;6.93;65.13
13952;BME280;39535;52.192;9.886;2023-01-15T13:26:15;99689.34;;;6.89;64.39
13952;BME280;39535;52.192;9.886;2023-01-15T13:28:53;99685.06;;;6.85;64.40